Time;durP1;ratioP1;P1;durP2;ratioP2;P2;SDS_P1;SDS_P2;PMS_P1;PMS_P2;Temp;Humidity;BMP_temperature;BMP_pressure;BME280_temperature;BME280_humidity;BME280_pressure;Samples;Min_cycle;Max_cycle;Signal;HPM_P1;HPM_P2
2023/10/30 00:00:21;;;;;;;17.75;8.13;;;;;;;9.63;100.00;92891.56;5070083;28;20052;-59
2023/10/30 00:02:48;;;;;;;26.75;11.40;;;;;;;9.59;100.00;92895.16;5069255;28;20048;-60
2023/10/30 00:05:16;;;;;;;22.20;10.18;;;;;;;9.62;100.00;92903.69;5069865;28;20048;-62
2023/10/30 00:07:43;;;;;;;18.58;8.82;;;;;;;9.63;100.00;92902.50;5069019;28;20049;-61
2023/10/30 00:10:10;;;;;;;18.37;9.27;;;;;;;9.62;100.00;92907.22;5068496;28;20124;-62
2023/10/30 00:12:38;;;;;;;18.58;10.05;;;;;;;9.56;100.00;92912.47;5069051;28;20055;-60
2023/10/30 00:15:05;;;;;;;18.35;9.88;;;;;;;9.49;100.00;92920.09;5069630;28;20049;-60
2023/10/30 00:17:32;;;;;;;15.85;8.90;;;;;;;9.33;100.00;92907.22;5069717;28;20371;-60
2023/10/30 00:19:59;;;;;;;16.33;8.88;;;;;;;9.26;100.00;92913.66;5068890;28;20400;-60
2023/10/30 00:22:26;;;;;;;16.47;8.37;;;;;;;9.17;100.00;92916.25;5069486;28;20051;-60
2023/10/30 00:24:53;;;;;;;14.50;8.30;;;;;;;9.06;100.00;92918.50;5069150;28;20051;-61
2023/10/30 00:27:20;;;;;;;16.15;9.68;;;;;;;8.97;100.00;92919.09;5069449;28;20370;-65
2023/10/30 00:29:47;;;;;;;22.52;13.25;;;;;;;8.87;100.00;92920.13;5077504;28;20256;-65
2023/10/30 00:32:14;;;;;;;17.08;9.95;;;;;;;8.88;100.00;92918.94;5069515;28;20041;-64
2023/10/30 00:34:41;;;;;;;15.57;9.20;;;;;;;8.82;100.00;92926.16;5068627;28;20045;-60
2023/10/30 00:37:09;;;;;;;17.92;9.93;;;;;;;8.76;100.00;92921.16;5068865;28;20489;-65
2023/10/30 00:39:37;;;;;;;14.18;8.25;;;;;;;8.74;100.00;92928.28;5056158;28;20146;-62
2023/10/30 00:42:04;;;;;;;14.88;7.63;;;;;;;8.68;100.00;92927.25;5069210;28;20284;-61
2023/10/30 00:44:31;;;;;;;15.75;8.60;;;;;;;8.67;100.00;92936.63;5069223;28;20453;-63
2023/10/30 00:46:58;;;;;;;14.57;8.50;;;;;;;8.55;100.00;92941.59;5068684;28;20503;-64
2023/10/30 00:49:25;;;;;;;15.80;8.10;;;;;;;8.55;100.00;92938.09;5062551;28;20075;-64
2023/10/30 00:51:52;;;;;;;12.40;7.28;;;;;;;8.52;100.00;92938.94;5068648;28;20040;-61
2023/10/30 00:54:19;;;;;;;12.45;5.97;;;;;;;8.51;100.00;92938.19;5068536;28;20048;-61
2023/10/30 00:56:45;;;;;;;9.65;5.88;;;;;;;8.34;100.00;92945.56;5068618;28;20101;-61
2023/10/30 00:59:12;;;;;;;56.73;29.93;;;;;;;8.31;100.00;92949.16;5068555;28;20048;-65
2023/10/30 01:01:39;;;;;;;86.88;42.08;;;;;;;8.27;100.00;92943.00;5068423;28;20071;-61
2023/10/30 01:04:06;;;;;;;19.75;10.63;;;;;;;8.15;100.00;92928.03;5068472;28;20041;-59
2023/10/30 01:06:33;;;;;;;12.77;6.80;;;;;;;8.13;100.00;92932.34;5068168;28;20390;-58
2023/10/30 01:09:00;;;;;;;10.02;5.32;;;;;;;8.13;100.00;92935.88;5068342;28;20440;-59
2023/10/30 01:11:27;;;;;;;7.33;4.27;;;;;;;8.07;100.00;92917.66;5050889;28;20412;-62
2023/10/30 01:13:53;;;;;;;7.45;4.13;;;;;;;7.99;100.00;92922.53;5067985;28;20040;-64
2023/10/30 01:16:20;;;;;;;7.07;4.18;;;;;;;7.93;100.00;92919.53;5068653;28;20821;-63
2023/10/30 01:18:47;;;;;;;14.18;6.88;;;;;;;7.65;100.00;92920.13;5067864;28;20056;-60
2023/10/30 01:21:14;;;;;;;14.07;7.15;;;;;;;7.66;100.00;92929.84;5068884;28;20450;-61
2023/10/30 01:23:41;;;;;;;12.77;6.50;;;;;;;7.70;100.00;92933.25;5067840;28;20040;-62
2023/10/30 01:26:08;;;;;;;12.75;6.38;;;;;;;7.70;100.00;92936.75;5068425;28;20719;-60
2023/10/30 01:28:34;;;;;;;12.48;5.70;;;;;;;7.67;100.00;92937.63;5070629;28;20682;-63
2023/10/30 01:31:01;;;;;;;11.25;5.30;;;;;;;7.58;100.00;92946.34;5068669;28;20050;-60
2023/10/30 01:33:28;;;;;;;17.25;7.65;;;;;;;7.54;100.00;92940.19;5068250;28;20713;-60
2023/10/30 01:35:55;;;;;;;38.40;18.20;;;;;;;7.57;100.00;92947.56;5067588;28;20482;-60
2023/10/30 01:38:22;;;;;;;23.52;10.82;;;;;;;7.54;100.00;92951.13;5070452;28;20048;-60
2023/10/30 01:40:50;;;;;;;18.35;9.20;;;;;;;7.45;100.00;92941.97;5078241;28;20078;-63
2023/10/30 01:43:30;;;;;;;13.75;6.78;;;;;;;7.39;100.00;92936.22;5068020;28;20074;-60
2023/10/30 01:45:58;;;;;;;9.93;5.38;;;;;;;7.40;100.00;92946.72;5067898;28;20053;-59
2023/10/30 01:48:27;;;;;;;8.53;4.37;;;;;;;7.40;100.00;92943.19;5066572;28;20071;-64
2023/10/30 01:50:54;;;;;;;7.20;3.80;;;;;;;7.36;100.00;92937.03;5065087;28;20044;-60
2023/10/30 01:53:21;;;;;;;13.30;6.20;;;;;;;7.37;100.00;92950.28;5067572;28;20041;-61
2023/10/30 01:55:49;;;;;;;7.05;3.75;;;;;;;7.30;100.00;92949.63;5066790;28;20059;-61
2023/10/30 01:58:17;;;;;;;7.57;4.05;;;;;;;7.24;100.00;92941.16;5067778;28;20051;-61
2023/10/30 02:00:45;;;;;;;7.37;3.80;;;;;;;7.23;100.00;92941.59;5066759;28;20040;-59
2023/10/30 02:03:13;;;;;;;10.15;4.80;;;;;;;7.19;100.00;92939.69;5067244;28;20048;-61
2023/10/30 02:05:40;;;;;;;8.02;4.05;;;;;;;7.15;100.00;92933.53;5066181;28;20040;-60
2023/10/30 02:08:09;;;;;;;6.45;3.40;;;;;;;7.15;100.00;92940.94;5066382;28;20485;-59
2023/10/30 02:10:36;;;;;;;7.78;3.50;;;;;;;7.13;100.00;92944.09;5066357;28;20051;-62
2023/10/30 02:13:10;;;;;;;7.73;3.90;;;;;;;7.15;100.00;92932.75;5049815;28;20043;-61
2023/10/30 02:15:37;;;;;;;8.32;3.90;;;;;;;7.17;100.00;92936.59;5066377;28;20457;-65
2023/10/30 02:18:04;;;;;;;10.27;4.32;;;;;;;7.17;100.00;92925.69;5067449;28;20040;-61
2023/10/30 02:20:31;;;;;;;11.75;4.53;;;;;;;7.15;100.00;92928.06;5066859;28;20094;-62
2023/10/30 02:22:58;;;;;;;7.25;4.32;;;;;;;7.15;100.00;92930.78;5066439;28;22031;-59
2023/10/30 02:25:25;;;;;;;8.30;4.47;;;;;;;7.09;100.00;92920.78;5067277;28;20535;-60
2023/10/30 02:27:52;;;;;;;7.70;4.70;;;;;;;6.98;100.00;92921.75;5065980;28;20055;-59
2023/10/30 02:30:20;;;;;;;7.40;4.50;;;;;;;6.89;100.00;92915.28;5077546;28;20716;-63
2023/10/30 02:32:47;;;;;;;9.13;4.45;;;;;;;6.91;100.00;92913.69;5066174;28;20082;-61
2023/10/30 02:35:16;;;;;;;11.52;6.40;;;;;;;6.93;100.00;92914.03;5067246;28;20045;-63
2023/10/30 02:37:44;;;;;;;10.07;5.50;;;;;;;6.89;100.00;92910.59;5066093;28;20048;-60
2023/10/30 02:40:12;;;;;;;9.68;4.55;;;;;;;6.98;100.00;92915.50;5074515;28;20105;-63
2023/10/30 02:42:40;;;;;;;11.13;4.78;;;;;;;6.97;100.00;92920.19;5066191;28;20071;-60
2023/10/30 02:45:08;;;;;;;8.98;4.70;;;;;;;6.90;100.00;92925.00;5067174;28;20048;-61
2023/10/30 02:47:35;;;;;;;7.75;4.55;;;;;;;6.98;100.00;92912.78;5066001;28;20037;-62
2023/10/30 02:50:02;;;;;;;9.17;4.70;;;;;;;6.90;100.00;92917.63;5065220;28;20043;-63
2023/10/30 02:52:30;;;;;;;8.48;4.82;;;;;;;6.95;100.00;92919.84;5036419;28;20044;-60
2023/10/30 02:54:56;;;;;;;9.25;5.43;;;;;;;7.04;100.00;92908.38;5066745;28;20044;-59
2023/10/30 02:57:23;;;;;;;8.30;4.85;;;;;;;6.94;100.00;92895.72;5067210;28;20041;-63
2023/10/30 02:59:50;;;;;;;9.02;5.53;;;;;;;6.86;100.00;92880.66;5066933;28;20466;-60
2023/10/30 03:02:17;;;;;;;8.33;5.10;;;;;;;6.93;100.00;92889.50;5068152;28;20044;-58
2023/10/30 03:04:43;;;;;;;8.82;5.20;;;;;;;6.98;100.00;92889.03;5070197;28;20044;-61
2023/10/30 03:07:10;;;;;;;11.88;5.88;;;;;;;6.81;100.00;92884.66;5070699;28;20051;-62
2023/10/30 03:09:37;;;;;;;12.18;5.95;;;;;;;6.56;100.00;92891.31;5070328;28;20436;-59
2023/10/30 03:12:04;;;;;;;10.00;5.70;;;;;;;6.60;100.00;92896.69;5070560;28;20049;-63
2023/10/30 03:14:31;;;;;;;10.00;5.37;;;;;;;6.69;100.00;92899.66;5070676;28;20700;-62
2023/10/30 03:16:58;;;;;;;9.93;5.18;;;;;;;6.73;100.00;92899.59;5070357;28;20143;-58
2023/10/30 03:19:25;;;;;;;9.10;5.20;;;;;;;6.72;100.00;92892.59;5053150;28;20040;-63
2023/10/30 03:21:52;;;;;;;10.25;4.80;;;;;;;6.53;100.00;92897.56;5069962;28;20059;-58
2023/10/30 03:24:18;;;;;;;9.80;4.80;;;;;;;6.54;100.00;92887.44;5070721;28;20056;-60
2023/10/30 03:26:46;;;;;;;7.87;4.43;;;;;;;6.49;100.00;92872.34;5070218;28;20052;-63
2023/10/30 03:29:12;;;;;;;8.55;4.40;;;;;;;6.48;100.00;92884.44;5079026;28;20066;-61
2023/10/30 03:31:40;;;;;;;8.85;5.10;;;;;;;6.48;100.00;92881.72;5070183;28;20055;-62
2023/10/30 03:34:07;;;;;;;10.60;5.43;;;;;;;6.45;100.00;92871.63;5070213;28;20057;-61
2023/10/30 03:36:33;;;;;;;8.75;4.75;;;;;;;6.40;100.00;92885.75;5052278;28;20478;-60
2023/10/30 03:39:00;;;;;;;9.63;4.60;;;;;;;6.28;100.00;92884.34;5074809;28;21273;-59
2023/10/30 03:41:27;;;;;;;8.68;4.22;;;;;;;6.24;100.00;92886.38;5070393;28;20048;-62
2023/10/30 03:43:54;;;;;;;9.73;4.70;;;;;;;6.25;100.00;92898.78;5069606;28;20050;-61
2023/10/30 03:46:20;;;;;;;118.63;64.82;;;;;;;6.25;100.00;92906.22;5070591;28;20055;-60
2023/10/30 03:48:47;;;;;;;34.30;17.55;;;;;;;6.28;100.00;92910.81;5066757;28;20044;-60
2023/10/30 03:51:14;;;;;;;14.17;7.70;;;;;;;6.28;100.00;92911.59;5070248;28;20052;-59
2023/10/30 03:53:41;;;;;;;11.90;5.93;;;;;;;6.24;100.00;92907.38;5069535;28;20055;-61
2023/10/30 03:56:08;;;;;;;10.30;6.00;;;;;;;6.25;100.00;92906.22;5070123;28;20047;-63
2023/10/30 03:58:35;;;;;;;7.80;4.50;;;;;;;6.22;100.00;92907.81;5069678;28;20044;-59
2023/10/30 04:01:07;;;;;;;10.38;4.90;;;;;;;6.10;100.00;92898.25;5070090;28;20044;-61
2023/10/30 04:03:35;;;;;;;12.70;4.73;;;;;;;6.06;100.00;92900.25;5069456;28;20045;-61
2023/10/30 04:06:03;;;;;;;8.38;4.60;;;;;;;6.15;100.00;92905.19;5069033;28;20051;-61
2023/10/30 04:08:30;;;;;;;9.18;5.05;;;;;;;5.99;100.00;92901.09;5070168;28;20040;-60
2023/10/30 04:10:57;;;;;;;8.93;4.65;;;;;;;6.05;100.00;92911.56;5068820;28;20046;-63
2023/10/30 04:13:24;;;;;;;9.25;4.43;;;;;;;6.04;100.00;92896.38;5069141;28;20040;-59
2023/10/30 04:15:50;;;;;;;6.37;3.77;;;;;;;5.99;100.00;92898.38;5068549;28;20393;-60
2023/10/30 04:18:17;;;;;;;8.52;4.60;;;;;;;5.84;100.00;92886.16;5069540;28;20134;-62
2023/10/30 04:20:45;;;;;;;9.48;5.05;;;;;;;5.70;100.00;92878.94;5068605;28;20036;-59
2023/10/30 04:23:11;;;;;;;8.23;4.40;;;;;;;5.86;100.00;92893.91;5069393;28;20523;-64
2023/10/30 04:25:38;;;;;;;9.18;4.32;;;;;;;5.90;100.00;92891.91;5068622;28;20495;-60
2023/10/30 04:28:05;;;;;;;9.80;3.97;;;;;;;5.67;100.00;92879.75;5069819;28;20090;-58
2023/10/30 04:30:32;;;;;;;8.27;3.78;;;;;;;5.80;100.00;92886.19;5078891;28;20058;-59
2023/10/30 04:33:00;;;;;;;7.72;4.00;;;;;;;5.81;100.00;92881.50;5050546;28;20673;-61
2023/10/30 04:35:27;;;;;;;7.15;4.20;;;;;;;5.76;100.00;92866.41;5068999;28;20082;-59
2023/10/30 04:37:54;;;;;;;8.98;4.60;;;;;;;5.71;100.00;92866.84;5068508;28;20043;-60
2023/10/30 04:40:21;;;;;;;17.57;5.23;;;;;;;5.82;100.00;92882.28;5076472;28;20063;-63
2023/10/30 04:42:48;;;;;;;9.07;5.07;;;;;;;5.90;100.00;92878.28;5068566;28;20407;-64
2023/10/30 04:45:15;;;;;;;13.88;5.80;;;;;;;5.97;100.00;92889.09;5068752;28;20040;-59
2023/10/30 04:47:43;;;;;;;91.35;8.20;;;;;;;5.87;100.00;92885.31;5067828;28;20436;-60
2023/10/30 04:50:10;;;;;;;53.88;8.30;;;;;;;5.78;100.00;92893.22;5069039;28;20051;-59
2023/10/30 04:52:37;;;;;;;26.23;7.10;;;;;;;5.78;100.00;92898.69;5068246;28;20412;-65
2023/10/30 04:55:04;;;;;;;274.58;15.20;;;;;;;5.67;100.00;92890.63;5068737;28;20040;-61
2023/10/30 04:57:31;;;;;;;33.15;6.43;;;;;;;5.65;100.00;92884.06;5068516;28;20386;-60
2023/10/30 04:59:58;;;;;;;28.58;5.90;;;;;;;5.54;100.00;92878.78;5067739;28;20447;-64
2023/10/30 05:02:25;;;;;;;100.63;9.25;;;;;;;5.46;100.00;92880.81;5068599;28;20040;-59
2023/10/30 05:04:52;;;;;;;29.37;7.57;;;;;;;5.29;100.00;92879.88;5068069;28;20049;-59
2023/10/30 05:07:18;;;;;;;38.83;7.25;;;;;;;5.33;100.00;92874.34;5068689;28;20062;-65
2023/10/30 05:09:45;;;;;;;20.00;6.25;;;;;;;5.31;100.00;92865.84;5068184;28;20053;-62
2023/10/30 05:12:12;;;;;;;13.48;5.45;;;;;;;5.29;100.00;92866.25;5068283;28;20493;-63
2023/10/30 05:14:39;;;;;;;70.57;8.63;;;;;;;5.08;100.00;92877.38;5049990;28;20078;-64
2023/10/30 05:17:05;;;;;;;45.10;7.37;;;;;;;5.05;100.00;92872.75;5067099;28;20052;-62
2023/10/30 05:19:32;;;;;;;17.55;7.07;;;;;;;5.07;100.00;92876.63;5050783;28;20040;-60
2023/10/30 05:21:59;;;;;;;74.00;9.00;;;;;;;4.84;100.00;92879.97;5067183;28;20524;-64
2023/10/30 05:24:26;;;;;;;31.42;6.85;;;;;;;4.94;100.00;92883.75;5068335;28;20049;-62
2023/10/30 05:26:52;;;;;;;22.15;7.03;;;;;;;5.02;100.00;92879.78;5049936;28;21744;-59
2023/10/30 05:29:19;;;;;;;33.67;6.90;;;;;;;4.91;100.00;92876.38;5066717;28;20051;-60
2023/10/30 05:31:46;;;;;;;38.30;7.45;;;;;;;4.77;100.00;92877.34;5067575;28;20055;-66
2023/10/30 05:34:13;;;;;;;16.40;7.53;;;;;;;4.94;100.00;92862.75;5063317;28;20044;-64
2023/10/30 05:36:40;;;;;;;14.10;7.82;;;;;;;4.96;100.00;92873.25;5066878;28;20036;-62
2023/10/30 05:39:06;;;;;;;44.80;15.88;;;;;;;4.98;100.00;92873.59;5070163;28;20090;-59
2023/10/30 05:41:33;;;;;;;23.40;11.70;;;;;;;4.98;100.00;92871.66;5066964;28;20048;-62
2023/10/30 05:44:00;;;;;;;15.43;8.20;;;;;;;4.71;100.00;92866.13;5066890;28;20485;-59
2023/10/30 05:46:26;;;;;;;24.02;7.85;;;;;;;4.64;100.00;92863.47;5067670;28;20051;-61
2023/10/30 05:48:53;;;;;;;14.88;7.72;;;;;;;4.80;100.00;92876.50;5066324;28;20044;-62
2023/10/30 05:51:20;;;;;;;15.15;8.35;;;;;;;4.88;100.00;92871.78;5067517;28;20048;-65
2023/10/30 05:53:47;;;;;;;15.97;8.40;;;;;;;4.87;100.00;92871.00;5066263;28;20040;-60
2023/10/30 05:56:14;;;;;;;46.47;9.38;;;;;;;4.69;100.00;92864.97;5067408;28;20049;-61
2023/10/30 05:58:40;;;;;;;18.90;8.18;;;;;;;4.69;100.00;92863.03;5066654;28;20032;-59
2023/10/30 06:01:07;;;;;;;24.08;7.38;;;;;;;4.76;100.00;92876.53;5067007;28;20505;-64
2023/10/30 06:03:34;;;;;;;16.55;7.80;;;;;;;4.77;100.00;92863.75;5066918;28;20044;-61
2023/10/30 06:06:01;;;;;;;14.97;8.07;;;;;;;4.71;100.00;92877.00;5045535;28;20047;-62
2023/10/30 06:08:28;;;;;;;15.60;8.65;;;;;;;4.70;100.00;92866.53;5047577;28;20061;-64
2023/10/30 06:10:55;;;;;;;17.65;10.15;;;;;;;4.70;100.00;92870.00;5044982;28;20071;-64
2023/10/30 06:13:22;;;;;;;23.30;11.07;;;;;;;4.70;100.00;92861.84;5047394;28;20052;-62
2023/10/30 06:15:49;;;;;;;18.23;9.52;;;;;;;4.75;100.00;92872.28;5046367;28;20049;-65
2023/10/30 06:18:16;;;;;;;28.17;10.30;;;;;;;4.76;100.00;92864.91;5047349;28;20445;-61
2023/10/30 06:20:46;;;;;;;22.40;7.53;;;;;;;4.80;100.00;92871.06;5046582;28;20052;-71
2023/10/30 06:23:13;;;;;;;23.00;11.48;;;;;;;4.80;100.00;92868.34;5045793;28;20059;-66
2023/10/30 06:25:39;;;;;;;13.70;7.30;;;;;;;4.85;100.00;92867.94;5046585;28;20049;-62
2023/10/30 06:28:08;;;;;;;46.75;7.35;;;;;;;4.75;100.00;92866.09;5047902;28;20052;-65
2023/10/30 06:30:35;;;;;;;12.43;6.00;;;;;;;4.85;100.00;92859.78;5046938;28;20126;-61
2023/10/30 06:33:02;;;;;;;11.00;6.57;;;;;;;4.81;100.00;92859.03;5047060;28;20045;-61
2023/10/30 06:35:29;;;;;;;11.93;6.70;;;;;;;4.92;100.00;92851.53;5046821;28;20053;-61
2023/10/30 06:37:56;;;;;;;12.60;7.18;;;;;;;4.96;100.00;92851.50;5048224;28;20037;-62
2023/10/30 06:40:23;;;;;;;15.95;8.27;;;;;;;4.80;100.00;92860.19;5051219;28;20055;-61
2023/10/30 06:42:49;;;;;;;12.87;7.00;;;;;;;4.99;100.00;92854.16;5049833;28;20037;-66
2023/10/30 06:45:16;;;;;;;13.95;8.07;;;;;;;4.99;100.00;92861.56;5050189;28;20041;-60
2023/10/30 06:47:44;;;;;;;13.98;8.25;;;;;;;4.87;100.00;92862.84;5049744;28;20178;-60
2023/10/30 06:50:10;;;;;;;21.33;12.10;;;;;;;4.88;100.00;92858.94;5051101;28;20053;-61
2023/10/30 06:52:37;;;;;;;15.05;8.55;;;;;;;4.95;100.00;92850.72;5050093;28;20033;-63
2023/10/30 06:55:05;;;;;;;31.17;6.70;;;;;;;5.08;100.00;92858.34;5050528;28;20084;-63
2023/10/30 06:57:31;;;;;;;16.00;6.30;;;;;;;4.72;100.00;92856.00;5050873;28;20041;-60
2023/10/30 06:59:58;;;;;;;11.55;6.25;;;;;;;5.03;100.00;92851.41;5064639;28;20045;-60
2023/10/30 07:02:25;;;;;;;14.15;6.30;;;;;;;5.27;100.00;92860.47;5048046;28;20053;-60
2023/10/30 07:04:52;;;;;;;11.38;6.35;;;;;;;5.96;100.00;92863.06;5053188;28;20045;-63
2023/10/30 07:07:19;;;;;;;10.00;5.90;;;;;;;7.56;100.00;92847.72;5070789;28;20048;-66
2023/10/30 07:09:46;;;;;;;10.25;5.97;;;;;;;7.24;100.00;92848.38;5070230;28;20408;-66
2023/10/30 07:12:12;;;;;;;11.35;6.57;;;;;;;8.47;100.00;92846.50;5070931;28;20531;-63
2023/10/30 07:14:39;;;;;;;10.00;6.30;;;;;;;9.39;100.00;92846.00;5070455;28;20037;-61
2023/10/30 07:17:06;;;;;;;10.10;5.70;;;;;;;8.70;100.00;92846.31;5053000;28;20052;-61
2023/10/30 07:19:33;;;;;;;10.60;6.27;;;;;;;8.56;100.00;92852.91;5070307;28;20045;-62
2023/10/30 07:22:02;;;;;;;10.65;6.13;;;;;;;8.75;100.00;92853.22;5070690;28;20037;-64
2023/10/30 07:24:29;;;;;;;67.55;6.80;;;;;;;8.56;100.00;92847.41;5071010;28;20431;-61
2023/10/30 07:26:57;;;;;;;12.40;5.85;;;;;;;8.54;100.00;92847.09;5070196;28;20045;-62
2023/10/30 07:29:24;;;;;;;17.40;6.47;;;;;;;9.02;100.00;92852.16;5073658;28;20048;-61
2023/10/30 07:31:51;;;;;;;21.80;9.87;;;;;;;9.06;100.00;92856.31;5052201;28;20047;-64
2023/10/30 07:34:18;;;;;;;17.63;7.80;;;;;;;9.30;100.00;92837.69;5070552;28;20045;-60
2023/10/30 07:36:44;;;;;;;31.88;7.25;;;;;;;8.67;100.00;92849.13;5070058;28;20051;-62
2023/10/30 07:39:11;;;;;;;46.70;7.45;;;;;;;8.79;100.00;92846.47;5077355;28;20044;-65
2023/10/30 07:41:38;;;;;;;18.75;7.68;;;;;;;9.03;100.00;92845.47;5069952;28;20543;-63
2023/10/30 07:44:08;;;;;;;13.57;7.40;;;;;;;9.39;100.00;92842.50;5070003;28;20375;-61
2023/10/30 07:46:35;;;;;;;31.75;8.88;;;;;;;9.46;100.00;92852.53;5069483;28;20057;-61
2023/10/30 07:49:04;;;;;;;15.07;8.30;;;;;;;10.27;100.00;92843.06;5052255;28;20047;-66
2023/10/30 07:51:31;;;;;;;17.33;8.38;;;;;;;10.84;100.00;92832.22;5070168;28;20047;-63
2023/10/30 07:53:58;;;;;;;17.20;9.50;;;;;;;10.94;100.00;92831.09;5069126;28;20049;-60
2023/10/30 07:56:25;;;;;;;18.97;10.30;;;;;;;11.87;100.00;92832.50;5069889;28;20041;-62
2023/10/30 07:58:52;;;;;;;14.25;8.32;;;;;;;12.59;100.00;92827.75;5051406;28;20301;-62
2023/10/30 08:01:20;;;;;;;13.32;8.60;;;;;;;11.62;100.00;92827.16;5067459;28;20496;-64
2023/10/30 08:03:47;;;;;;;13.13;8.05;;;;;;;12.25;100.00;92811.44;5069264;28;20049;-64
2023/10/30 08:06:14;;;;;;;13.85;8.10;;;;;;;12.13;100.00;92819.38;5069751;28;20514;-63
2023/10/30 08:08:41;;;;;;;14.17;7.97;;;;;;;12.27;100.00;92809.78;5068899;28;20036;-63
2023/10/30 08:11:09;;;;;;;15.07;9.23;;;;;;;13.39;100.00;92815.00;5069861;28;20044;-63
2023/10/30 08:13:37;;;;;;;12.68;8.27;;;;;;;14.11;100.00;92806.28;5069046;28;20093;-60
2023/10/30 08:16:05;;;;;;;13.43;8.10;;;;;;;15.44;100.00;92810.88;5069295;28;20110;-65
2023/10/30 08:18:32;;;;;;;12.32;7.93;;;;;;;14.88;100.00;92813.28;5051911;28;20059;-61
2023/10/30 08:20:59;;;;;;;12.40;7.90;;;;;;;15.07;100.00;92811.16;5068457;28;20045;-61
2023/10/30 08:23:36;;;;;;;11.40;7.88;;;;;;;13.53;100.00;92816.38;5068995;28;20040;-66
2023/10/30 08:26:05;;;;;;;13.23;8.00;;;;;;;14.39;100.00;92811.69;5069501;28;20041;-61
2023/10/30 08:28:32;;;;;;;12.05;7.60;;;;;;;14.06;100.00;92803.38;5072594;28;20537;-61
2023/10/30 08:31:00;;;;;;;12.48;8.00;;;;;;;13.16;100.00;92802.59;5068116;28;21603;-65
2023/10/30 08:33:27;;;;;;;15.47;8.47;;;;;;;13.41;100.00;92803.53;5069134;28;20045;-63
2023/10/30 08:35:54;;;;;;;14.52;8.98;;;;;;;14.22;100.00;92796.72;5068579;28;20040;-64
2023/10/30 08:38:21;;;;;;;13.23;8.90;;;;;;;14.50;100.00;92808.41;5071266;28;20047;-61
2023/10/30 08:40:47;;;;;;;12.65;8.13;;;;;;;14.43;100.00;92798.47;5073491;28;20489;-61
2023/10/30 08:43:14;;;;;;;13.60;8.50;;;;;;;14.77;100.00;92788.94;5051658;28;20051;-61
2023/10/30 08:45:41;;;;;;;12.63;8.03;;;;;;;14.47;100.00;92784.50;5068449;28;20041;-63
2023/10/30 08:48:10;;;;;;;12.93;8.38;;;;;;;14.41;100.00;92787.13;5069240;28;20051;-61
2023/10/30 08:50:45;;;;;;;11.15;7.35;;;;;;;14.23;100.00;92782.47;5068375;28;20163;-65
2023/10/30 08:53:12;;;;;;;11.15;8.00;;;;;;;13.04;100.00;92778.72;5068577;28;20044;-61
2023/10/30 08:55:40;;;;;;;12.77;7.88;;;;;;;13.32;100.00;92782.25;5064864;28;20052;-61
2023/10/30 08:58:07;;;;;;;14.10;8.50;;;;;;;13.04;100.00;92775.19;5068854;28;20060;-62
2023/10/30 09:00:34;;;;;;;11.50;7.70;;;;;;;13.78;100.00;92781.38;5067373;28;20056;-62
2023/10/30 09:03:01;;;;;;;16.10;7.90;;;;;;;13.86;100.00;92779.06;5068755;28;20048;-65
2023/10/30 09:05:28;;;;;;;14.75;8.00;;;;;;;13.31;100.00;92771.69;5068170;28;20048;-63
2023/10/30 09:07:55;;;;;;;12.40;7.60;;;;;;;13.46;100.00;92766.31;5068342;28;20470;-63
2023/10/30 09:10:26;;;;;;;13.27;7.37;;;;;;;13.31;100.00;92775.22;5068697;28;20044;-62
2023/10/30 09:12:53;;;;;;;11.38;7.65;;;;;;;12.54;100.00;92776.06;5068277;28;20117;-63
2023/10/30 09:15:20;;;;;;;12.40;7.88;;;;;;;12.27;100.00;92773.25;5068368;28;20044;-61
2023/10/30 09:17:47;;;;;;;12.15;7.70;;;;;;;12.48;100.00;92768.88;5067776;28;20059;-62
2023/10/30 09:20:14;;;;;;;11.23;7.18;;;;;;;12.21;100.00;92764.81;5068340;28;20044;-63
2023/10/30 09:22:41;;;;;;;11.13;6.67;;;;;;;12.05;100.00;92765.84;5068032;28;20106;-60
2023/10/30 09:25:08;;;;;;;12.43;7.10;;;;;;;11.99;100.00;92762.16;5068108;28;20405;-63
2023/10/30 09:27:35;;;;;;;11.25;7.25;;;;;;;12.28;100.00;92748.03;5068151;28;20054;-66
2023/10/30 09:30:03;;;;;;;13.63;7.90;;;;;;;12.36;100.00;92741.03;5079896;28;20051;-65
2023/10/30 09:32:30;;;;;;;17.15;8.50;;;;;;;12.11;100.00;92750.31;5068711;28;20050;-61
2023/10/30 09:34:58;;;;;;;15.47;8.47;;;;;;;11.49;100.00;92739.31;5067774;28;20036;-60
2023/10/30 09:37:25;;;;;;;13.25;7.88;;;;;;;11.80;100.00;92731.81;5068275;28;20049;-61
2023/10/30 09:39:52;;;;;;;13.10;7.78;;;;;;;12.23;100.00;92734.13;5075566;28;20477;-59
2023/10/30 09:42:19;;;;;;;14.00;7.70;;;;;;;12.42;100.00;92723.94;5068137;28;20049;-62
2023/10/30 09:44:46;;;;;;;12.93;8.02;;;;;;;12.71;100.00;92716.00;5067694;28;20104;-65
2023/10/30 09:47:14;;;;;;;14.53;7.77;;;;;;;12.66;100.00;92710.34;5068027;28;20088;-63
2023/10/30 09:49:41;;;;;;;12.43;7.72;;;;;;;11.71;100.00;92717.28;5054535;28;20351;-63
2023/10/30 09:52:09;;;;;;;13.07;8.75;;;;;;;11.62;100.00;92715.25;5067796;28;20052;-61
2023/10/30 09:54:37;;;;;;;12.98;7.97;;;;;;;11.71;100.00;92704.31;5067706;28;20045;-60
2023/10/30 09:57:05;;;;;;;12.18;7.82;;;;;;;12.19;100.00;92715.00;5067778;28;20456;-61
2023/10/30 09:59:36;;;;;;;12.30;8.20;;;;;;;12.46;100.00;92705.28;5068192;28;20405;-60
2023/10/30 10:02:03;;;;;;;19.00;12.70;;;;;;;12.53;100.00;92715.97;5067134;28;20271;-62
2023/10/30 10:04:31;;;;;;;19.38;11.93;;;;;;;12.74;100.00;92708.81;5065787;28;20105;-60
2023/10/30 10:06:58;;;;;;;18.92;12.82;;;;;;;12.84;100.00;92701.28;5066987;28;20766;-63
2023/10/30 10:09:25;;;;;;;19.83;13.65;;;;;;;12.75;100.00;92699.31;5049806;28;20548;-61
2023/10/30 10:11:52;;;;;;;14.40;10.17;;;;;;;12.49;100.00;92701.59;5067294;28;20062;-60
2023/10/30 10:14:20;;;;;;;17.95;10.52;;;;;;;12.78;100.00;92693.66;5071919;28;20051;-61
2023/10/30 10:16:47;;;;;;;19.25;11.23;;;;;;;13.09;100.00;92684.44;5071277;28;20059;-63
2023/10/30 10:19:21;;;;;;;12.88;7.82;;;;;;;13.30;100.00;92681.97;5071768;28;20147;-64
2023/10/30 10:21:49;;;;;;;11.25;7.43;;;;;;;13.13;100.00;92682.28;5070776;28;20449;-61
2023/10/30 10:24:27;;;;;;;11.37;7.40;;;;;;;12.82;100.00;92682.50;5071765;28;20401;-60
2023/10/30 10:26:57;;;;;;;14.85;7.72;;;;;;;12.88;100.00;92679.91;5071181;28;20093;-61
2023/10/30 10:29:24;;;;;;;10.73;6.70;;;;;;;13.21;100.00;92680.00;5071599;28;20041;-61
2023/10/30 10:31:51;;;;;;;11.25;6.75;;;;;;;13.49;100.00;92677.19;5070864;28;20505;-61
2023/10/30 10:34:19;;;;;;;12.88;7.03;;;;;;;13.32;100.00;92668.50;5071612;28;20044;-63
2023/10/30 10:36:46;;;;;;;11.37;7.23;;;;;;;13.08;100.00;92671.13;5070856;28;20110;-60
2023/10/30 10:39:14;;;;;;;11.70;7.10;;;;;;;13.07;100.00;92675.13;5075594;28;20051;-64
2023/10/30 10:41:42;;;;;;;11.50;7.45;;;;;;;13.07;100.00;92669.63;5070777;28;20040;-65
2023/10/30 10:44:11;;;;;;;11.77;6.82;;;;;;;13.26;100.00;92662.06;5071203;28;20428;-61
2023/10/30 10:46:37;;;;;;;9.95;5.60;;;;;;;13.50;100.00;92665.72;5071029;28;20420;-66
2023/10/30 10:49:05;;;;;;;13.17;5.70;;;;;;;13.80;100.00;92657.59;5071338;28;20039;-63
2023/10/30 10:51:37;;;;;;;10.00;5.22;;;;;;;14.31;100.00;92653.19;5071256;28;20067;-65
2023/10/30 10:54:16;;;;;;;6.85;4.40;;;;;;;14.67;100.00;92646.66;5057564;28;20252;-62
2023/10/30 10:56:49;;;;;;;7.15;4.20;;;;;;;15.17;100.00;92641.28;5070571;28;20508;-61
2023/10/30 10:59:16;;;;;;;10.10;5.80;;;;;;;15.31;100.00;92642.53;5071487;28;20648;-63
2023/10/30 11:01:48;;;;;;;8.60;5.97;;;;;;;14.87;100.00;92634.97;5052814;28;20040;-60
2023/10/30 11:04:16;;;;;;;11.90;6.03;;;;;;;15.58;100.00;92630.38;5071069;28;20048;-68
2023/10/30 11:06:50;;;;;;;10.30;6.35;;;;;;;16.32;100.00;92615.59;5068595;28;20042;-63
2023/10/30 11:09:22;;;;;;;6.93;4.88;;;;;;;16.88;100.00;92614.72;5069807;28;20053;-61
2023/10/30 11:12:00;;;;;;;7.63;4.40;;;;;;;17.06;100.00;92597.75;5051205;28;20066;-63
2023/10/30 11:14:36;;;;;;;6.20;3.80;;;;;;;16.91;100.00;92597.13;5070026;28;20044;-63
2023/10/30 11:17:05;;;;;;;7.88;4.20;;;;;;;17.01;100.00;92595.72;5068612;28;20450;-61
2023/10/30 11:19:37;;;;;;;9.00;5.20;;;;;;;16.96;100.00;92568.69;5069420;28;20105;-61
2023/10/30 11:22:04;;;;;;;7.32;4.35;;;;;;;17.99;96.89;92574.53;5068614;28;21492;-65
2023/10/30 11:24:37;;;;;;;6.03;3.90;;;;;;;18.46;91.17;92572.22;5069303;28;20047;-61